createdAt,value
2018-12-20T00:00:49.136Z,17.80
2018-12-20T00:01:49.104Z,17.50
2018-12-20T00:02:48.994Z,18.10
2018-12-20T00:03:49.111Z,17.60
2018-12-20T00:04:49.013Z,18.60
2018-12-20T00:05:49.049Z,15.80
2018-12-20T00:06:48.976Z,15.50
2018-12-20T00:07:48.935Z,20.00
2018-12-20T00:08:49.008Z,17.20
2018-12-20T00:09:48.982Z,17.20
2018-12-20T00:10:48.891Z,16.50
2018-12-20T00:11:48.881Z,17.20
2018-12-20T00:12:48.906Z,22.30
2018-12-20T00:13:48.902Z,18.10
2018-12-20T00:14:48.886Z,19.80
2018-12-20T00:15:48.845Z,17.60
2018-12-20T00:16:48.837Z,21.00
2018-12-20T00:17:48.908Z,17.70
2018-12-20T00:18:48.894Z,22.70
2018-12-20T00:19:48.949Z,19.70
2018-12-20T00:20:48.884Z,24.70
2018-12-20T00:21:48.867Z,21.90
2018-12-20T00:22:48.783Z,22.00
2018-12-20T00:23:48.807Z,22.00
2018-12-20T00:24:48.796Z,21.40
2018-12-20T00:25:48.819Z,19.60
2018-12-20T00:26:48.757Z,23.30
2018-12-20T00:27:48.714Z,19.60
2018-12-20T00:28:48.785Z,21.80
2018-12-20T00:29:48.805Z,24.70
2018-12-20T00:30:48.672Z,24.20
2018-12-20T00:31:48.702Z,23.90
2018-12-20T00:32:48.779Z,26.50
2018-12-20T00:33:48.849Z,24.10
2018-12-20T00:34:48.643Z,25.20
2018-12-20T00:35:48.711Z,23.50
2018-12-20T00:36:48.657Z,22.60
2018-12-20T00:37:48.831Z,24.10
2018-12-20T00:38:48.611Z,22.30
2018-12-20T00:39:48.585Z,22.40
2018-12-20T00:40:48.620Z,21.90
2018-12-20T00:41:48.583Z,24.60
2018-12-20T00:42:48.692Z,21.00
2018-12-20T00:43:48.633Z,20.90
2018-12-20T00:44:48.609Z,20.80
2018-12-20T00:45:48.714Z,20.70
2018-12-20T00:46:48.562Z,23.90
2018-12-20T00:47:48.503Z,22.00
2018-12-20T00:48:48.481Z,24.60
2018-12-20T00:49:48.600Z,20.20
2018-12-20T00:50:48.462Z,19.00
2018-12-20T00:51:48.607Z,25.50
2018-12-20T00:52:48.550Z,21.70
2018-12-20T00:53:48.462Z,22.40
2018-12-20T00:54:48.444Z,22.00
2018-12-20T00:55:48.531Z,19.90
2018-12-20T00:56:48.444Z,21.90
2018-12-20T00:57:48.409Z,21.40
2018-12-20T00:58:48.476Z,21.40
2018-12-20T00:59:48.399Z,22.90
2018-12-20T01:00:48.420Z,19.10
2018-12-20T01:01:48.334Z,16.20
2018-12-20T01:02:55.072Z,17.10
2018-12-20T01:03:49.320Z,17.50
2018-12-20T01:04:48.304Z,16.30
2018-12-20T01:05:48.290Z,16.60
2018-12-20T01:06:48.287Z,17.90
2018-12-20T01:07:48.287Z,17.80
2018-12-20T01:08:48.315Z,16.10
2018-12-20T01:09:48.283Z,15.10
2018-12-20T01:10:48.338Z,16.40
2018-12-20T01:11:48.246Z,16.70
2018-12-20T01:12:48.251Z,16.70
2018-12-20T01:13:48.246Z,14.90
2018-12-20T01:14:48.319Z,13.70
2018-12-20T01:15:48.268Z,13.50
2018-12-20T01:16:48.180Z,12.10
2018-12-20T01:17:48.276Z,13.40
2018-12-20T01:18:48.190Z,11.80
2018-12-20T01:19:48.227Z,13.20
2018-12-20T01:20:48.275Z,10.60
2018-12-20T01:21:48.227Z,11.80
2018-12-20T01:22:48.249Z,12.50
2018-12-20T01:23:48.333Z,12.00
2018-12-20T01:24:48.259Z,12.80
2018-12-20T01:25:48.224Z,13.80
2018-12-20T01:26:48.081Z,10.20
2018-12-20T01:27:48.053Z,10.00
2018-12-20T01:28:48.173Z,12.30
2018-12-20T01:29:48.030Z,11.30
2018-12-20T01:30:48.163Z,12.10
2018-12-20T01:31:48.049Z,11.30
2018-12-20T01:32:48.038Z,10.40
2018-12-20T01:33:48.120Z,13.70
2018-12-20T01:34:48.058Z,9.80
2018-12-20T01:35:47.965Z,10.40
2018-12-20T01:36:48.020Z,10.80
2018-12-20T01:37:48.003Z,9.60
2018-12-20T01:38:48.017Z,8.60
2018-12-20T01:39:48.031Z,9.60
2018-12-20T01:40:47.915Z,8.70
2018-12-20T01:41:47.973Z,10.10
2018-12-20T01:42:48.050Z,11.60
2018-12-20T01:43:48.043Z,9.00
2018-12-20T01:44:53.507Z,7.30
2018-12-20T01:45:48.860Z,7.40
2018-12-20T01:46:47.899Z,7.60
2018-12-20T01:47:47.956Z,9.60
2018-12-20T01:48:47.872Z,8.90
2018-12-20T01:49:47.977Z,9.70
2018-12-20T01:50:48.094Z,8.30
2018-12-20T01:51:47.843Z,8.40
2018-12-20T01:52:47.983Z,11.40
2018-12-20T01:53:47.775Z,8.00
2018-12-20T01:54:47.835Z,8.00
2018-12-20T01:55:47.884Z,9.10
2018-12-20T01:56:47.936Z,12.50
2018-12-20T01:57:47.878Z,5.80
2018-12-20T01:58:47.813Z,8.90
2018-12-20T01:59:47.728Z,8.00
2018-12-20T02:00:47.845Z,6.80
2018-12-20T02:01:47.846Z,7.90
2018-12-20T02:02:47.728Z,8.10
2018-12-20T02:03:47.692Z,8.80
2018-12-20T02:04:47.662Z,7.40
2018-12-20T02:05:47.722Z,8.10
2018-12-20T02:06:47.768Z,8.50
2018-12-20T02:07:47.843Z,7.80
2018-12-20T02:08:47.652Z,9.00
2018-12-20T02:09:47.640Z,5.10
2018-12-20T02:10:47.740Z,6.50
2018-12-20T02:11:47.770Z,7.70
2018-12-20T02:12:47.590Z,7.90
2018-12-20T02:13:47.714Z,6.70
2018-12-20T02:14:47.592Z,8.80
2018-12-20T02:15:47.750Z,7.00
2018-12-20T02:16:47.538Z,9.20
2018-12-20T02:17:47.588Z,7.60
2018-12-20T02:18:47.543Z,9.10
2018-12-20T02:19:47.575Z,9.70
2018-12-20T02:20:47.672Z,7.60
2018-12-20T02:21:47.762Z,6.00
2018-12-20T02:22:47.472Z,8.20
2018-12-20T02:23:47.482Z,9.10
2018-12-20T02:24:47.453Z,8.30
2018-12-20T02:25:47.680Z,8.60
2018-12-20T02:26:47.415Z,6.50
2018-12-20T02:27:47.440Z,8.60
2018-12-20T02:28:47.460Z,7.30
2018-12-20T02:29:47.532Z,7.30
2018-12-20T02:30:47.539Z,7.10
2018-12-20T02:31:47.561Z,8.50
2018-12-20T02:32:47.505Z,7.30
2018-12-20T02:33:47.377Z,9.40
2018-12-20T02:34:47.509Z,7.40
2018-12-20T02:35:47.333Z,7.20
2018-12-20T02:36:47.317Z,7.50
2018-12-20T02:37:47.343Z,8.70
2018-12-20T02:38:47.356Z,7.50
2018-12-20T02:39:47.429Z,7.50
2018-12-20T02:40:47.329Z,9.40
2018-12-20T02:41:47.341Z,7.70
2018-12-20T02:42:47.487Z,6.50
2018-12-20T02:43:47.516Z,6.50
2018-12-20T02:44:47.324Z,6.00
2018-12-20T02:45:47.392Z,6.60
2018-12-20T02:46:47.311Z,8.00
2018-12-20T02:47:47.365Z,8.00
2018-12-20T02:48:47.248Z,9.10
2018-12-20T02:49:47.186Z,7.90
2018-12-20T02:50:47.176Z,8.60
2018-12-20T02:51:47.194Z,8.90
2018-12-20T02:52:47.332Z,10.40
2018-12-20T02:53:47.314Z,8.50
2018-12-20T02:54:47.169Z,6.60
2018-12-20T02:55:47.106Z,8.00
2018-12-20T02:56:47.181Z,8.80
2018-12-20T02:57:47.136Z,7.50
2018-12-20T02:58:47.110Z,9.30
2018-12-20T02:59:47.294Z,7.70
2018-12-20T03:00:47.051Z,7.30
2018-12-20T03:01:47.115Z,6.30
2018-12-20T03:02:47.073Z,7.60
2018-12-20T03:03:47.274Z,9.10
2018-12-20T03:04:47.194Z,7.70
2018-12-20T03:05:47.187Z,6.70
2018-12-20T03:06:47.110Z,9.00
2018-12-20T03:07:47.463Z,7.50
2018-12-20T03:08:47.164Z,8.60
2018-12-20T03:09:47.053Z,8.20
2018-12-20T03:10:47.009Z,7.00
2018-12-20T03:11:46.963Z,8.60
2018-12-20T03:12:46.920Z,7.20
2018-12-20T03:13:46.933Z,7.90
2018-12-20T03:14:46.904Z,6.70
2018-12-20T03:15:47.013Z,7.30
2018-12-20T03:16:46.889Z,8.80
2018-12-20T03:17:46.925Z,7.90
2018-12-20T03:18:46.964Z,6.00
2018-12-20T03:19:47.100Z,6.90
2018-12-20T03:20:46.860Z,6.50
2018-12-20T03:21:47.108Z,4.90
2018-12-20T03:22:46.863Z,8.70
2018-12-20T03:23:46.804Z,8.50
2018-12-20T03:24:46.965Z,6.00
2018-12-20T03:25:46.926Z,7.70
2018-12-20T03:26:47.063Z,7.20
2018-12-20T03:27:46.821Z,9.10
2018-12-20T03:28:46.834Z,7.30
2018-12-20T03:29:47.041Z,7.00
2018-12-20T03:30:47.060Z,6.10
2018-12-20T03:31:46.779Z,8.10
2018-12-20T03:32:46.750Z,6.70
2018-12-20T03:33:46.714Z,10.50
2018-12-20T03:34:46.712Z,5.30
2018-12-20T03:35:46.710Z,7.50
2018-12-20T03:36:46.848Z,6.70
2018-12-20T03:37:46.696Z,7.20
2018-12-20T03:38:46.859Z,6.20
2018-12-20T03:39:46.663Z,5.90
2018-12-20T03:40:46.853Z,6.50
2018-12-20T03:41:46.606Z,7.40
2018-12-20T03:42:46.848Z,6.80
2018-12-20T03:43:46.792Z,7.50
2018-12-20T03:44:46.577Z,7.60
2018-12-20T03:45:46.564Z,6.30
2018-12-20T03:46:46.675Z,6.40
2018-12-20T03:47:46.616Z,7.50
2018-12-20T03:48:46.560Z,6.60
2018-12-20T03:49:46.559Z,6.80
2018-12-20T03:50:46.690Z,5.70
2018-12-20T03:51:46.681Z,6.10
2018-12-20T03:52:46.755Z,7.00
2018-12-20T03:53:46.497Z,7.00
2018-12-20T03:54:46.695Z,6.10
2018-12-20T03:55:46.681Z,5.70
2018-12-20T03:56:46.482Z,5.90
2018-12-20T03:57:46.555Z,7.00
2018-12-20T03:58:46.568Z,7.50
2018-12-20T03:59:46.524Z,5.80
2018-12-20T04:00:46.414Z,4.70
2018-12-20T04:01:46.444Z,6.40
2018-12-20T04:02:46.401Z,6.10
2018-12-20T04:03:46.389Z,5.70
2018-12-20T04:04:46.490Z,7.60
2018-12-20T04:05:46.648Z,4.70
2018-12-20T04:06:46.428Z,5.60
2018-12-20T04:07:46.346Z,5.50
2018-12-20T04:08:46.336Z,4.80
2018-12-20T04:09:46.547Z,6.40
2018-12-20T04:10:46.295Z,5.10
2018-12-20T04:11:46.282Z,6.70
2018-12-20T04:12:46.422Z,6.00
2018-12-20T04:13:46.375Z,5.30
2018-12-20T04:14:46.273Z,6.00
2018-12-20T04:15:46.341Z,4.30
2018-12-20T04:16:46.237Z,4.10
2018-12-20T04:17:46.283Z,6.00
2018-12-20T04:18:46.209Z,6.80
2018-12-20T04:19:46.253Z,6.40
2018-12-20T04:20:46.253Z,6.60
2018-12-20T04:21:46.327Z,6.60
2018-12-20T04:22:46.337Z,4.40
2018-12-20T04:23:46.224Z,5.50
2018-12-20T04:24:46.338Z,5.20
2018-12-20T04:25:46.185Z,6.50
2018-12-20T04:26:46.167Z,4.30
2018-12-20T04:27:46.122Z,5.40
2018-12-20T04:28:46.102Z,5.00
2018-12-20T04:29:46.174Z,6.20
2018-12-20T04:30:46.403Z,5.50
2018-12-20T04:31:46.174Z,5.20
2018-12-20T04:32:46.082Z,5.40
2018-12-20T04:33:46.062Z,4.50
2018-12-20T04:34:46.132Z,5.90
2018-12-20T04:35:46.213Z,3.70
2018-12-20T04:36:46.023Z,6.50
2018-12-20T04:37:46.196Z,3.70
2018-12-20T04:38:46.153Z,4.30
2018-12-20T04:39:46.107Z,6.70
2018-12-20T04:40:45.998Z,3.40
2018-12-20T04:41:46.138Z,5.30
2018-12-20T04:42:46.205Z,3.50
2018-12-20T04:43:46.002Z,4.50
2018-12-20T04:44:45.945Z,4.90
2018-12-20T04:45:46.778Z,5.30
2018-12-20T04:46:45.916Z,4.50
2018-12-20T04:47:46.109Z,4.90
2018-12-20T04:48:46.073Z,5.30
2018-12-20T04:49:45.875Z,6.60
2018-12-20T04:50:45.966Z,3.60
2018-12-20T04:51:45.931Z,5.20
2018-12-20T04:52:45.865Z,4.60
2018-12-20T04:53:46.073Z,4.10
2018-12-20T04:54:46.004Z,3.60
2018-12-20T04:55:45.874Z,3.60
2018-12-20T04:56:45.843Z,4.10
2018-12-20T04:57:46.033Z,4.00
2018-12-20T04:58:45.832Z,6.10
2018-12-20T04:59:45.818Z,4.60
2018-12-20T05:00:45.780Z,3.60
2018-12-20T05:01:45.896Z,5.90
2018-12-20T05:02:45.755Z,5.10
2018-12-20T05:03:45.837Z,5.00
2018-12-20T05:04:45.750Z,6.00
2018-12-20T05:05:45.843Z,5.60
2018-12-20T05:06:46.000Z,4.90
2018-12-20T05:07:45.676Z,5.50
2018-12-20T05:08:45.731Z,4.40
2018-12-20T05:09:46.048Z,5.80
2018-12-20T05:10:45.740Z,5.00
2018-12-20T05:11:45.648Z,3.30
2018-12-20T05:12:45.720Z,3.90
2018-12-20T05:13:45.625Z,3.60
2018-12-20T05:14:45.779Z,4.60
2018-12-20T05:15:45.656Z,3.10
2018-12-20T05:16:45.591Z,5.10
2018-12-20T05:17:45.690Z,4.90
2018-12-20T05:18:45.573Z,5.30
2018-12-20T05:19:45.610Z,3.90
2018-12-20T05:20:45.559Z,4.90
2018-12-20T05:21:45.713Z,3.70
2018-12-20T05:22:45.516Z,4.00
2018-12-20T05:23:45.702Z,4.50
2018-12-20T05:24:45.501Z,2.90
2018-12-20T05:25:45.518Z,4.60
2018-12-20T05:26:45.581Z,4.60
2018-12-20T05:27:45.787Z,9.20
2018-12-20T05:28:45.458Z,4.00
2018-12-20T05:29:45.459Z,2.90
2018-12-20T05:30:45.692Z,4.00
2018-12-20T05:31:45.719Z,4.50
2018-12-20T05:32:45.624Z,2.80
2018-12-20T05:33:45.611Z,3.40
2018-12-20T05:34:45.564Z,3.80
2018-12-20T05:35:45.415Z,3.50
2018-12-20T05:36:45.593Z,2.40
2018-12-20T05:37:45.359Z,4.10
2018-12-20T05:38:45.607Z,3.00
2018-12-20T05:39:45.427Z,4.40
2018-12-20T05:40:45.393Z,4.20
2018-12-20T05:41:45.429Z,4.60
2018-12-20T05:42:45.500Z,2.70
2018-12-20T05:43:45.430Z,3.50
2018-12-20T05:44:47.638Z,3.70
2018-12-20T05:45:45.305Z,3.20
2018-12-20T05:46:45.253Z,3.40
2018-12-20T05:47:45.459Z,3.50
2018-12-20T05:48:45.440Z,2.60
2018-12-20T05:49:45.430Z,3.30
2018-12-20T05:50:45.337Z,2.50
2018-12-20T05:51:45.447Z,3.50
2018-12-20T05:52:45.233Z,3.00
2018-12-20T05:53:45.390Z,3.60
2018-12-20T05:54:45.192Z,2.80
2018-12-20T05:55:45.206Z,2.60
2018-12-20T05:56:45.372Z,1.90
2018-12-20T05:57:45.168Z,5.10
2018-12-20T05:58:45.149Z,2.40
2018-12-20T05:59:45.126Z,2.30
2018-12-20T06:00:45.237Z,2.90
2018-12-20T06:01:45.251Z,3.40
2018-12-20T06:02:45.121Z,3.60
2018-12-20T06:03:45.095Z,3.50
2018-12-20T06:04:45.110Z,4.10
2018-12-20T06:05:45.053Z,3.50
2018-12-20T06:06:45.216Z,1.80
2018-12-20T06:07:45.109Z,2.30
2018-12-20T06:08:45.024Z,4.10
2018-12-20T06:09:45.060Z,3.30
2018-12-20T06:10:45.006Z,1.90
2018-12-20T06:11:44.986Z,3.20
2018-12-20T06:12:45.151Z,3.00
2018-12-20T06:13:45.147Z,3.30
2018-12-20T06:14:45.069Z,2.80
2018-12-20T06:15:44.982Z,3.30
2018-12-20T06:16:44.931Z,2.40
2018-12-20T06:17:44.946Z,2.00
2018-12-20T06:18:44.969Z,2.50
2018-12-20T06:19:45.046Z,3.40
2018-12-20T06:20:44.919Z,3.90
2018-12-20T06:21:44.873Z,5.20
2018-12-20T06:22:44.865Z,2.40
2018-12-20T06:23:44.864Z,2.00
2018-12-20T06:24:44.850Z,2.40
2018-12-20T06:25:44.881Z,2.60
2018-12-20T06:26:44.842Z,3.30
2018-12-20T06:27:44.842Z,3.20
2018-12-20T06:28:44.809Z,1.50
2018-12-20T06:29:44.812Z,2.70
2018-12-20T06:30:44.782Z,3.80
2018-12-20T06:31:44.910Z,3.60
2018-12-20T06:32:44.779Z,3.00
2018-12-20T06:33:44.876Z,2.90
2018-12-20T06:34:44.732Z,2.10
2018-12-20T06:35:44.725Z,3.40
2018-12-20T06:36:44.781Z,4.20
2018-12-20T06:37:44.703Z,1.60
2018-12-20T06:38:44.735Z,1.60
2018-12-20T06:39:44.682Z,1.10
2018-12-20T06:40:44.677Z,2.80
2018-12-20T06:41:44.759Z,1.10
2018-12-20T06:42:44.671Z,1.00
2018-12-20T06:43:44.637Z,2.70
2018-12-20T06:44:44.628Z,1.20
2018-12-20T06:45:44.737Z,1.30
2018-12-20T06:46:44.606Z,1.80
2018-12-20T06:47:44.705Z,1.00
2018-12-20T06:48:44.589Z,0.90
2018-12-20T06:49:44.606Z,1.30
2018-12-20T06:50:44.610Z,1.10
2018-12-20T06:51:44.550Z,1.30
2018-12-20T06:52:44.554Z,1.40
2018-12-20T06:53:44.561Z,2.00
2018-12-20T06:54:44.567Z,1.40
2018-12-20T06:55:44.512Z,1.30
2018-12-20T06:56:44.496Z,1.80
2018-12-20T06:57:44.495Z,1.60
2018-12-20T06:58:44.502Z,1.90
2018-12-20T06:59:44.493Z,1.80
2018-12-20T07:00:44.458Z,0.90
2018-12-20T07:01:44.456Z,1.10
2018-12-20T07:02:44.431Z,1.10
2018-12-20T07:03:44.481Z,0.90
2018-12-20T07:04:44.442Z,2.30
2018-12-20T07:05:44.401Z,2.20
2018-12-20T07:06:44.397Z,1.20
2018-12-20T07:07:44.390Z,1.10
2018-12-20T07:08:44.413Z,1.00
2018-12-20T07:09:44.396Z,2.80
2018-12-20T07:10:44.347Z,1.10
2018-12-20T07:11:44.346Z,1.30
2018-12-20T07:12:44.335Z,1.90
2018-12-20T07:13:44.327Z,1.10
2018-12-20T07:14:44.340Z,0.90
2018-12-20T07:15:44.297Z,1.40
2018-12-20T07:16:44.284Z,2.60
2018-12-20T07:17:44.274Z,2.60
2018-12-20T07:18:44.275Z,2.10
2018-12-20T07:19:44.286Z,1.10
2018-12-20T07:20:44.268Z,1.90
2018-12-20T07:21:44.236Z,1.70
2018-12-20T07:22:44.228Z,2.40
2018-12-20T07:23:44.209Z,1.70
2018-12-20T07:24:44.217Z,2.40
2018-12-20T07:25:44.219Z,3.40
2018-12-20T07:26:44.250Z,2.70
2018-12-20T07:27:44.177Z,1.20
2018-12-20T07:28:44.200Z,1.00
2018-12-20T07:29:44.150Z,1.80
2018-12-20T07:30:44.143Z,1.50
2018-12-20T07:31:44.148Z,2.00
2018-12-20T07:32:44.178Z,2.50
2018-12-20T07:33:44.113Z,1.90
2018-12-20T07:34:47.819Z,2.00
2018-12-20T07:35:44.082Z,2.70
2018-12-20T07:36:44.140Z,2.40
2018-12-20T07:37:44.096Z,2.20
2018-12-20T07:38:44.046Z,1.80
2018-12-20T07:39:44.037Z,1.50
2018-12-20T07:40:44.037Z,1.30
2018-12-20T07:41:44.086Z,1.50
2018-12-20T07:42:44.009Z,2.10
2018-12-20T07:43:43.999Z,2.50
2018-12-20T07:44:43.988Z,1.70
2018-12-20T07:45:43.972Z,2.60
2018-12-20T07:46:44.022Z,4.60
2018-12-20T07:47:43.952Z,3.10
2018-12-20T07:48:43.997Z,1.60
2018-12-20T07:49:43.964Z,2.20
2018-12-20T07:50:43.917Z,2.40
2018-12-20T07:51:43.917Z,1.60
2018-12-20T07:52:43.925Z,1.60
2018-12-20T07:53:43.885Z,4.90
2018-12-20T07:54:43.875Z,1.00
2018-12-20T07:55:43.874Z,1.80
2018-12-20T07:56:43.857Z,2.10
2018-12-20T07:57:43.877Z,3.00
2018-12-20T07:58:43.863Z,1.80
2018-12-20T07:59:43.839Z,1.90
2018-12-20T08:00:43.813Z,2.50
2018-12-20T08:01:43.800Z,2.80
2018-12-20T08:02:43.825Z,2.00
2018-12-20T08:03:43.850Z,3.80
2018-12-20T08:04:43.763Z,3.50
2018-12-20T08:05:43.757Z,2.30
2018-12-20T08:06:43.772Z,2.20
2018-12-20T08:07:43.746Z,2.40
2018-12-20T08:08:43.752Z,3.20
2018-12-20T08:09:43.771Z,2.50
2018-12-20T08:10:43.703Z,3.50
2018-12-20T08:11:43.688Z,2.60
2018-12-20T08:12:43.758Z,3.70
2018-12-20T08:13:43.701Z,3.60
2018-12-20T08:14:43.720Z,2.00
2018-12-20T08:15:43.643Z,2.00
2018-12-20T08:16:46.125Z,3.00
2018-12-20T08:17:43.625Z,3.70
2018-12-20T08:18:43.630Z,2.90
2018-12-20T08:19:43.632Z,2.20
2018-12-20T08:20:43.681Z,3.20
2018-12-20T08:21:43.585Z,2.50
2018-12-20T08:22:43.580Z,3.10
2018-12-20T08:23:43.578Z,4.70
2018-12-20T08:24:43.580Z,4.80
2018-12-20T08:25:43.557Z,3.50
2018-12-20T08:26:43.533Z,3.80
2018-12-20T08:27:43.548Z,1.80
2018-12-20T08:28:43.503Z,3.60
2018-12-20T08:29:43.508Z,4.90
2018-12-20T08:30:43.506Z,3.40
2018-12-20T08:31:43.487Z,1.70
2018-12-20T08:32:43.493Z,2.30
2018-12-20T08:33:43.471Z,3.10
2018-12-20T08:34:43.460Z,2.00
2018-12-20T08:35:44.050Z,3.00
2018-12-20T08:36:43.426Z,2.60
2018-12-20T08:37:43.406Z,4.40
2018-12-20T08:38:43.432Z,5.60
2018-12-20T08:39:43.413Z,1.80
2018-12-20T08:40:43.404Z,1.80
2018-12-20T08:41:43.364Z,3.00
2018-12-20T08:42:43.359Z,3.20
2018-12-20T08:43:43.354Z,2.40
2018-12-20T08:44:43.340Z,4.50
2018-12-20T08:45:43.334Z,3.00
2018-12-20T08:46:43.342Z,3.30
2018-12-20T08:47:43.315Z,3.70
2018-12-20T08:48:43.294Z,2.90
2018-12-20T08:49:43.283Z,3.00
2018-12-20T08:50:43.312Z,1.70
2018-12-20T08:51:49.008Z,2.30
2018-12-20T08:52:44.264Z,1.60
2018-12-20T08:53:43.263Z,2.60
2018-12-20T08:54:43.222Z,3.90
2018-12-20T08:55:43.293Z,3.60
2018-12-20T08:56:43.201Z,3.10
2018-12-20T08:57:43.269Z,4.40
2018-12-20T08:58:43.198Z,2.00
2018-12-20T08:59:43.194Z,2.50
2018-12-20T09:00:43.165Z,2.40
2018-12-20T09:01:43.152Z,2.20
2018-12-20T09:02:43.163Z,3.40
2018-12-20T09:03:43.133Z,3.60
2018-12-20T09:04:43.146Z,2.80
2018-12-20T09:05:43.132Z,2.80
2018-12-20T09:06:43.090Z,3.40
2018-12-20T09:07:43.143Z,4.30
2018-12-20T09:08:43.130Z,3.30
2018-12-20T09:09:43.092Z,2.00
2018-12-20T09:10:43.053Z,2.30
2018-12-20T09:11:43.083Z,5.70
2018-12-20T09:12:43.071Z,2.50
2018-12-20T09:13:43.054Z,1.90
2018-12-20T09:14:43.008Z,3.30
2018-12-20T09:15:43.010Z,3.80
2018-12-20T09:16:43.003Z,3.70
2018-12-20T09:17:43.039Z,3.00
2018-12-20T09:18:42.976Z,1.80
2018-12-20T09:19:43.061Z,3.60
2018-12-20T09:20:42.944Z,4.40
2018-12-20T09:21:42.935Z,2.60
2018-12-20T09:22:42.925Z,5.40
2018-12-20T09:23:42.967Z,1.80
2018-12-20T09:24:42.943Z,3.50
2018-12-20T09:25:42.896Z,2.60
2018-12-20T09:26:42.913Z,3.20
2018-12-20T09:27:42.959Z,2.20
2018-12-20T09:28:42.901Z,1.80
2018-12-20T09:29:42.867Z,4.60
2018-12-20T09:30:42.834Z,2.40
2018-12-20T09:31:42.857Z,2.70
2018-12-20T09:32:42.821Z,4.40
2018-12-20T09:33:42.816Z,3.80
2018-12-20T09:34:42.826Z,2.50
2018-12-20T09:35:42.819Z,2.20
2018-12-20T09:36:42.838Z,4.10
2018-12-20T09:37:42.788Z,4.60
2018-12-20T09:38:42.786Z,3.50
2018-12-20T09:39:42.752Z,5.00
2018-12-20T09:40:42.751Z,2.50
2018-12-20T09:41:42.747Z,4.40
2018-12-20T09:42:42.728Z,4.30
2018-12-20T09:43:42.693Z,4.90
2018-12-20T09:44:42.707Z,3.90
2018-12-20T09:45:42.674Z,2.50
2018-12-20T09:46:42.659Z,3.80
2018-12-20T09:47:42.772Z,3.30
2018-12-20T09:48:42.692Z,3.50
2018-12-20T09:49:42.627Z,3.10
2018-12-20T09:50:42.650Z,3.50
2018-12-20T09:51:42.657Z,3.10
2018-12-20T09:52:42.637Z,3.40
2018-12-20T09:53:42.619Z,3.50
2018-12-20T09:54:42.647Z,3.70
2018-12-20T09:55:42.563Z,2.80
2018-12-20T09:56:42.583Z,4.50
2018-12-20T09:57:42.544Z,7.60
2018-12-20T09:58:42.570Z,3.30
2018-12-20T09:59:42.534Z,4.10
2018-12-20T10:00:42.556Z,4.20
2018-12-20T10:01:42.575Z,4.80
2018-12-20T10:02:42.488Z,3.70
2018-12-20T10:03:42.530Z,4.60
2018-12-20T10:04:42.486Z,4.70
2018-12-20T10:05:42.505Z,3.60
2018-12-20T10:06:42.445Z,3.80
2018-12-20T10:07:42.432Z,3.30
2018-12-20T10:08:42.435Z,2.80
2018-12-20T10:09:42.441Z,3.70
2018-12-20T10:10:42.413Z,2.70
2018-12-20T10:11:42.397Z,5.60
2018-12-20T10:12:42.380Z,3.10
2018-12-20T10:13:42.376Z,4.40
2018-12-20T10:14:42.409Z,4.40
2018-12-20T10:15:42.399Z,3.70
2018-12-20T10:16:42.342Z,7.30
2018-12-20T10:17:42.332Z,4.30
2018-12-20T10:18:42.324Z,5.50
2018-12-20T10:19:42.328Z,4.00
2018-12-20T10:20:42.298Z,4.60
2018-12-20T10:21:42.288Z,4.30
2018-12-20T10:22:42.299Z,2.60
2018-12-20T10:23:42.272Z,3.30
2018-12-20T10:24:42.293Z,4.00
2018-12-20T10:25:42.245Z,2.80
2018-12-20T10:26:42.247Z,1.80
2018-12-20T10:27:42.218Z,1.80
2018-12-20T10:28:42.223Z,2.40
2018-12-20T10:29:42.228Z,1.70
2018-12-20T10:30:42.230Z,1.50
2018-12-20T10:31:42.174Z,1.00
2018-12-20T10:32:42.182Z,3.50
2018-12-20T10:33:42.154Z,0.80
2018-12-20T10:34:42.170Z,1.70
2018-12-20T10:35:42.172Z,1.40
2018-12-20T10:36:42.137Z,1.40
2018-12-20T10:37:42.112Z,1.40
2018-12-20T10:38:42.111Z,1.50
2018-12-20T10:39:42.089Z,0.70
2018-12-20T10:40:42.109Z,2.00
2018-12-20T10:41:42.073Z,1.10
2018-12-20T10:42:42.076Z,1.00
2018-12-20T10:43:42.043Z,0.90
2018-12-20T10:44:42.032Z,1.40
2018-12-20T10:45:42.090Z,1.30
2018-12-20T10:46:44.075Z,1.50
2018-12-20T10:47:42.022Z,2.10
2018-12-20T10:48:41.991Z,1.40
2018-12-20T10:49:42.043Z,2.70
2018-12-20T10:50:41.984Z,1.80
2018-12-20T10:51:42.003Z,2.00
2018-12-20T10:52:42.003Z,0.70
2018-12-20T10:53:41.960Z,0.90
2018-12-20T10:54:41.958Z,1.20
2018-12-20T10:55:41.941Z,0.90
2018-12-20T10:56:41.998Z,0.90
2018-12-20T10:57:41.907Z,1.00
2018-12-20T10:58:41.889Z,1.70
2018-12-20T10:59:41.870Z,0.60
2018-12-20T11:00:41.861Z,1.30
2018-12-20T11:01:41.888Z,0.60
2018-12-20T11:02:41.859Z,2.50
2018-12-20T11:03:41.846Z,0.80
2018-12-20T11:04:41.841Z,0.80
2018-12-20T11:05:41.816Z,0.90
2018-12-20T11:06:41.794Z,0.90
2018-12-20T11:07:41.805Z,0.90
2018-12-20T11:08:41.836Z,1.20
2018-12-20T11:09:41.805Z,1.30
2018-12-20T11:10:41.792Z,2.80
2018-12-20T11:11:41.761Z,2.00
2018-12-20T11:12:41.754Z,1.30
2018-12-20T11:13:41.758Z,1.10
2018-12-20T11:14:41.718Z,3.20
2018-12-20T11:15:41.703Z,1.60
2018-12-20T11:16:41.684Z,1.00
2018-12-20T11:17:41.722Z,3.10
2018-12-20T11:18:41.700Z,1.10
2018-12-20T11:19:41.758Z,1.30
2018-12-20T11:20:41.653Z,0.80
2018-12-20T11:21:41.679Z,2.20
2018-12-20T11:22:41.674Z,1.70
2018-12-20T11:23:41.612Z,2.70
2018-12-20T11:24:41.597Z,3.30
2018-12-20T11:25:41.603Z,1.70
2018-12-20T11:26:41.593Z,2.20
2018-12-20T11:27:41.601Z,1.00
2018-12-20T11:28:41.625Z,1.00
2018-12-20T11:29:41.559Z,2.60
2018-12-20T11:30:41.530Z,0.90
2018-12-20T11:31:41.524Z,2.20
2018-12-20T11:32:42.133Z,0.80
2018-12-20T11:33:41.603Z,1.80
2018-12-20T11:34:41.498Z,1.20
2018-12-20T11:35:41.478Z,1.50
2018-12-20T11:36:41.526Z,1.80
2018-12-20T11:37:41.462Z,0.80
2018-12-20T11:38:41.484Z,1.20
2018-12-20T11:39:41.459Z,1.50
2018-12-20T11:40:41.424Z,2.20
2018-12-20T11:41:41.406Z,1.00
2018-12-20T11:42:41.399Z,0.70
2018-12-20T11:43:41.385Z,2.20
2018-12-20T11:44:41.435Z,1.10
2018-12-20T11:45:41.398Z,1.60
2018-12-20T11:46:41.454Z,1.50
2018-12-20T11:47:45.858Z,1.30
2018-12-20T11:48:41.333Z,1.10
2018-12-20T11:49:41.372Z,1.30
2018-12-20T11:50:41.307Z,2.10
2018-12-20T11:51:41.376Z,0.70
2018-12-20T11:52:42.462Z,1.80
2018-12-20T11:53:41.275Z,0.60
2018-12-20T11:54:41.317Z,1.10
2018-12-20T11:55:41.266Z,1.30
2018-12-20T11:56:41.339Z,1.80
2018-12-20T11:57:41.276Z,1.10
2018-12-20T11:58:41.225Z,1.90
2018-12-20T11:59:41.226Z,1.50
2018-12-20T12:00:41.295Z,1.20
2018-12-20T12:01:41.189Z,0.80
2018-12-20T12:02:41.226Z,1.40
2018-12-20T12:03:41.172Z,1.80
2018-12-20T12:04:41.178Z,1.40
2018-12-20T12:05:41.189Z,1.60
2018-12-20T12:06:41.142Z,0.90
2018-12-20T12:07:41.155Z,1.00
2018-12-20T12:08:41.127Z,0.50
2018-12-20T12:09:41.182Z,4.20
2018-12-20T12:10:41.160Z,1.10
2018-12-20T12:11:41.122Z,0.90
2018-12-20T12:12:41.148Z,2.00
2018-12-20T12:13:41.133Z,1.20
2018-12-20T12:14:41.054Z,1.90
2018-12-20T12:15:41.065Z,0.80
2018-12-20T12:16:41.059Z,0.90
2018-12-20T12:17:41.034Z,1.10
2018-12-20T12:18:41.003Z,0.70
2018-12-20T12:19:41.016Z,1.00
2018-12-20T12:20:40.988Z,1.40
2018-12-20T12:21:40.997Z,1.60
2018-12-20T12:22:41.094Z,1.80
2018-12-20T12:23:40.964Z,0.50
2018-12-20T12:24:40.955Z,0.70
2018-12-20T12:25:40.987Z,0.80
2018-12-20T12:26:40.945Z,0.90
2018-12-20T12:27:40.930Z,2.00
2018-12-20T12:28:40.900Z,1.00
2018-12-20T12:29:40.916Z,1.40
2018-12-20T12:30:40.874Z,1.00
2018-12-20T12:31:40.903Z,1.20
2018-12-20T12:32:40.892Z,1.20
2018-12-20T12:33:40.845Z,0.90
2018-12-20T12:34:40.844Z,0.50
2018-12-20T12:35:40.916Z,1.10
2018-12-20T12:36:40.810Z,2.10
2018-12-20T12:37:40.838Z,1.00
2018-12-20T12:38:40.828Z,1.10
2018-12-20T12:39:40.858Z,1.70
2018-12-20T12:40:40.866Z,1.00
2018-12-20T12:41:40.761Z,2.00
2018-12-20T12:42:40.935Z,0.70
2018-12-20T12:43:40.809Z,0.70
2018-12-20T12:44:40.721Z,1.20
2018-12-20T12:45:40.756Z,0.80
2018-12-20T12:46:40.733Z,0.80
2018-12-20T12:47:40.788Z,1.30
2018-12-20T12:48:40.747Z,0.70
2018-12-20T12:49:40.701Z,0.80
2018-12-20T12:50:40.657Z,2.10
2018-12-20T12:51:40.683Z,1.00
2018-12-20T12:52:40.637Z,0.90
2018-12-20T12:53:40.648Z,1.00
2018-12-20T12:54:40.614Z,0.90
2018-12-20T12:55:40.645Z,1.40
2018-12-20T12:56:40.684Z,1.40
2018-12-20T12:57:40.654Z,1.70
2018-12-20T12:58:40.614Z,1.00
2018-12-20T12:59:40.577Z,1.40
2018-12-20T13:00:40.559Z,0.90
2018-12-20T13:01:40.547Z,1.60
2018-12-20T13:02:40.575Z,2.70
2018-12-20T13:03:40.520Z,1.50
2018-12-20T13:04:40.560Z,1.10
2018-12-20T13:05:40.504Z,1.40
2018-12-20T13:06:40.485Z,1.20
2018-12-20T13:07:40.523Z,1.80
2018-12-20T13:08:40.472Z,1.90
2018-12-20T13:09:40.481Z,1.30
2018-12-20T13:10:40.435Z,1.50
2018-12-20T13:11:40.465Z,0.80
2018-12-20T13:12:40.419Z,2.10
2018-12-20T13:13:40.412Z,3.20
2018-12-20T13:14:40.399Z,1.60
2018-12-20T13:15:40.410Z,1.40